Anchorage, AK (99514)

8:33 PM AKDT on July 27, 2016 (GMT -0800)
The Spurlocks at Airport Heights | | Change Station

Elev 124 ft 61.21 °N, 149.82 °W | Updated 4 seconds ago

Overcast
Overcast
65.7 °F
Feels Like 65.7 °F
N
0.0
Wind Variable Wind from North
Gusts 0.0 mph

Today
High -- | Low -- °F
--% Chance of Precip.
Yesterday
High -- | Low -- °F
Precip. -- in
Pressure 29.78 in
Visibility 10.0 miles
Clouds Scattered Clouds 7000 ft
Overcast 10000 ft
Dew Point 59 °F
Humidity 78%
Rainfall 0.09 in
Snow Depth Not available.
5:20 AM 10:49 PM
Last Quarter, 36% visible
METAR PAMR 280353Z 30004KT 10SM -RA SCT070 OVC100 18/12 A2978 RMK AO2 RAB17 SLP084 P0001 T01830122 $
Pressure 29.78 in
Visibility 10.0 miles
Clouds Scattered Clouds 7000 ft
Overcast 10000 ft
Dew Point 59 °F
Humidity 78%
Rainfall 0.09 in
Snow Depth Not available.
5:20 AM 10:49 PM
Last Quarter, 36% visible
METAR PAMR 280353Z 30004KT 10SM -RA SCT070 OVC100 18/12 A2978 RMK AO2 RAB17 SLP084 P0001 T01830122 $

10-Day Weather Forecast

Almanac

Astronomy

Jul. 27, 2016 Rise Set
Actual Time
Civil Twilight
Nautical Twilight
Astronomical Twilight
Moon
Length of Visible Light
Length of Day
Tomorrow will be .
, % of the Moon is Illuminated

Today's Extremes

State Highs State Lows

Community

WunderPhotos

Upload Photos

1,928,060 photos uploaded!

WunderBlog® & News

Nearby

Air Quality

  Air Quality AQ Index Pollutant
Not available.

Snow Depth

Station Depth Elevation

Earthquake Activity

City Distance Mag. Time & Date
Minimum magnitude displayed is 2.5.

Coastal Water Temperatures

Place Temperature

Stations

Nearby Weather Stations

Station Location Temp. Windchill Dew Point Humidity Wind Precip. Elev Updated Type
                   

Watches & Warnings

There are currently no watches in effect.